Mc Ghee Tyson Airport
KTYS : now visible

Airfield :











YOU CAN JOIN US ON...

 
LOGIN :

Register | Disclaimer

   EN    FR    IT 

 









Legend :    VFR   Marginal VFR   IFR   Intensive IFR   Very Intensive IFR
Visi :
Ceiling :
>= 8 km
>= 3000ft
5 to 8 km
1000 to 3000 ft
1500m to 5 km
500 to 1000 ft
800 to 1500m
200 to 500 ft
< 800m
< 200 ft
Symbols :   Thunderstorms  Fog  Heavy snow  Heavy precipitations  Wind > 20 kt







- Airport Elevation : 981 ft
- IATA code : TYS


KTYS - Mc Ghee Tyson

CURRENT METAR :
  • 210645Z 00000KT 10SM FEW008 BKN039 24/22 A3001 RMK AO2 T02390222

EXPIRED METARs :
  • 210553Z 36004KT 10SM FEW031 SCT250 24/22 A3000 RMK AO2 SLP145 T02390222 10267 20233 58010
  • 210453Z 00000KT 10SM FEW150 SCT250 24/22 A3001 RMK AO2 SLP149 T02440222 403220228
  • 210353Z 20003KT 10SM FEW040 SCT150 BKN250 24/22 A3004 RMK AO2 SLP160 T02440222

TAF KTYS
Valid from the 21 at 06:00 until the 22 at 06:00 UTC


210520Z 2106/2206 21004KT P6SM SCT040
FM211800 21003KT P6SM SCT040
PROB30 2118/2122 4SM TSRA BKN040CB
FM212200 23008KT P6SM VCTS SCT040CB BKN150
FM220200 23005KT P6SM BKN250
KZTL FIR / North America



MET'MAP, your aeronautical weather chart ! - Copyright ORBIFLY December 2007 - Disclaimer

ORBIFLY MET'MAP TEAM :

Programming & Development : Alexandra Zaïnal
Concept & Development : Baudouin d'Aumeries
Co-Development & Prog : Marc-Olivier Méhu
Technical & hardware support : Manuel Goepfert

Contact : metmap@orbifly.com




SOURCES & CREDITS :

   NOAA       Earth
Advisory